DIYODIAP

Guest
Details From DIYO - YAMOUSSOUKRO
To DIAP - Abidjan Felix Houphouet Boigny Intl
Flight Number -
Tags generated
Created
Modified
Stats Distance 139 nm / 258 km
Max Altitude 17,400 ft / 5,304 m
Waypoints 4
Social Downloads 0
Likes 0
Share VATSIM

Download

Looking for another format? Having issues loading an existing format? Contact us
Advertisement - Login to hide

Notes

Basic altitude profile: - Ascent Rate: 2500ft/min - Ascent Speed: 250kts - Cruise Altitude: 35000ft - Cruise Speed: 420kts - Descent Rate: 1500ft/min - Descent Speed: 250kts Options: - Use NATs: yes - Use PACOTS: yes - Use low airways: yes - Use high airways: yes

Route

DIYO DEGAS G851F AD DIAP

ID Type Via Altitude Latitude Longitude Leg Dist Tot Dist Heading (true) Name
O DIYO APT - 0 ft / 0 m 6.90317˚ -5.36558˚ - 0 nm - YAMOUSSOUKRO
DEGAS FIX - 17,400 ft / 5,304 m 6.49111˚ -4.48556˚ 58 nm 58 nm 115° / 115° -
AD VOR G851F (AWY-LO) 4,500 ft / 1,372 m 5.27719˚ -3.91931˚ 80 nm 138 nm 155° / 155° ABIDJAN VOR-DME
O DIAP APT - 0 ft / 0 m 5.26139˚ -3.92630˚ 1 nm 139 nm 204° / 204° Abidjan Felix Houphouet Boigny Intl

Altitude Profile

Advertisement - Login to hide

DIYO

Details ICAO DIYO (ASK)
Name YAMOUSSOUKRO
Region Côte d'Ivoire
Timezone Africa/Abidjan (UTC+0.0)
Stats Elevation 699 ft / 213 m (AMSL)
Location 6.903166° -5.365579°
Runways 1
Magnetic Variation 4.682° W

METAR

DIYO 160900Z 24006KT 6000 NSC 26/23 Q1013 NOSIG

Decode

TAF

TAF DIYO 160500Z 1606/1706 VRB03KT 6000 NSC PROB40 TEMPO 1606/1608 2500 BR SCT006 BKN010 PROB30 TEMPO 1603/1607 0600 FG BECMG 1609/1610 27010KT 3000 HZ BECMG 1622/1623 VRB02KT 6000 NSW PROB40 TEMPO 1703/1706 3500 BR SCT005 BKN010

Decode

Departure Runways

ID Width Length Bearing (true) Bearing (mag) Surface Threshold Offset Overrun Length
05 148 ft / 45 m 9,946 ft / 3,032 m 41.92° 46.60° Asphalt 0 ft / 0 m 330 ft / 101 m
23 148 ft / 45 m 9,946 ft / 3,032 m 221.92° 226.60° Asphalt 0 ft / 0 m 330 ft / 101 m

DIAP

Details ICAO DIAP (ABJ)
Name Abidjan Felix Houphouet Boigny Intl
Region Côte d'Ivoire
Timezone Africa/Abidjan (UTC+0.0)
Stats Elevation 21 ft / 6 m (AMSL)
Location 5.261386° -3.926296°
Runways 1
Magnetic Variation 4.682° W

METAR

DIAP 160930Z VRB01KT 6000 -RA SCT012 BKN020 28/26 Q1012 NOSIG

Decode

TAF

TAF DIAP 160500Z 1606/1712 VRB03KT 7000 FEW012 PROB30 TEMPO 1606/1607 4500 BR BECMG 1609/1611 21010KT PROB40 1611/1617 3000 HZ

Decode

Destination Runways

ID Width Length Bearing (true) Bearing (mag) Surface Threshold Offset Overrun Length
03 164 ft / 50 m 9,889 ft / 3,014 m 22.27° 26.95° Asphalt 0 ft / 0 m 197 ft / 60 m
21 164 ft / 50 m 9,889 ft / 3,014 m 202.27° 206.95° Asphalt 0 ft / 0 m 328 ft / 100 m

Approach Navaids

Runway Type Ident Frequency Range Bearing (true) Bearing (mag) Slope Elevation
21 Localiser AN 110.30 MHz 18 nm / 33 km 201.45° 206.14° - 13 ft / 4 m (AMSL)
21 Glidescope AN 110.30 MHz 10 nm / 19 km 202.27° 206.95° 3.00° 24 ft / 7 m (AMSL)
21 DME AN 110.30 MHz 18 nm / 33 km - - - 24 ft / 7 m (AMSL)